Overview Statistics Trail Chart Weather Telemetry Raw packets
 

This is the latest recevied weather packets stored in our database for station/object N1SU-13. If no packets are shown the sender has not sent any weather packets the latest 10 day(s).

<< 13 14 15 16 17 18 19 >>
Time Temp. Humidity Pressure Rain* Wind** Luminosity Snow
1788478295 16.67° C 66% 1008.3 hPa 0 mm - - -
1788477720 16.67° C 69% 1008.3 hPa 0 mm - - -
1788477055 16.11° C 70% 1008.4 hPa 0 mm - - -
1788476392 16.11° C 72% 1008.4 hPa 0 mm - - -
1788475794 16.11° C 71% 1008.4 hPa 0 mm - - -
1788475152 16.11° C 72% 1008.5 hPa 0 mm - - -
1788474572 16.11° C 70% 1008.5 hPa 0 mm - - -
1788473897 16.67° C 69% 1008.6 hPa 0 mm - - -
1788473322 16.67° C 66% 1008.6 hPa 0 mm - - -
1788472705 17.22° C 64% 1008.5 hPa 0 mm - - -
1788472136 17.78° C 62% 1008.3 hPa 0 mm - - -
1788471525 17.78° C 61% 1008.2 hPa 0 mm - - -
1788470891 17.78° C 60% 1008.1 hPa 0 mm - - -
1788470302 17.78° C 60% 1008.1 hPa 0 mm - - -
1788469610 17.22° C 61% 1008 hPa 0 mm - - -
1788468906 17.22° C 62% 1008 hPa 0 mm - - -
1788468221 16.67° C 62% 1008 hPa 0 mm - - -
1788467559 17.22° C 61% 1008 hPa 0 mm - - -
1788466941 17.22° C 59% 1008.1 hPa 0 mm - - -
1788466308 16.67° C 61% 1008.2 hPa 0 mm - - -
1788465643 16.11° C 63% 1008.2 hPa 0 mm - - -
1788464953 16.11° C 65% 1008.2 hPa 0 mm - - -
1788464367 16.11° C 64% 1008.2 hPa 0 mm - - -
1788463699 15.56° C 66% 1008.2 hPa 0 mm - - -
1788463134 15.56° C 66% 1008.1 hPa 0 mm - - -

* Rain latest hour (hover to see other rain measurements)
** Current wind speed in m/s (hover to see current wind gust speed)